Time;durP1;ratioP1;P1;durP2;ratioP2;P2;SDS_P1;SDS_P2;PMS_P1;PMS_P2;Temp;Humidity;BMP_temperature;BMP_pressure;BME280_temperature;BME280_humidity;BME280_pressure;Samples;Min_cycle;Max_cycle;Signal;HPM_P1;HPM_P2
2023/03/25 00:02:55;;;;;;;3.30;1.27;;;;;;;10.62;75.18;98896.66;10554839;28;20400;-78
2023/03/25 00:07:57;;;;;;;3.13;0.80;;;;;;;10.66;75.35;98897.34;10552613;28;20052;-79
2023/03/25 00:13:03;;;;;;;3.63;1.75;;;;;;;10.60;75.20;98898.53;10557160;28;20043;-77
2023/03/25 00:18:05;;;;;;;2.63;1.08;;;;;;;10.57;75.43;98894.25;10541525;28;20071;-78
2023/03/25 00:23:07;;;;;;;3.45;1.00;;;;;;;10.50;75.59;98878.91;10557235;28;20023;-78
2023/03/25 00:28:08;;;;;;;5.43;1.17;;;;;;;10.45;75.57;98867.78;10556736;28;20052;-79
2023/03/25 00:33:12;;;;;;;4.72;1.10;;;;;;;10.39;75.72;98858.38;10537592;28;20041;-79
2023/03/25 00:38:13;;;;;;;2.50;1.48;;;;;;;10.47;75.04;98858.03;10555730;28;20126;-79
2023/03/25 00:43:15;;;;;;;2.80;1.02;;;;;;;10.39;75.33;98871.53;10554901;28;20510;-79
2023/03/25 00:48:17;;;;;;;3.03;1.17;;;;;;;10.28;75.96;98868.59;10538017;28;20071;-79
2023/03/25 00:53:19;;;;;;;3.10;1.00;;;;;;;10.42;75.18;98862.66;10553278;28;20409;-77
2023/03/25 00:58:21;;;;;;;3.75;1.25;;;;;;;10.30;75.73;98859.69;10551389;28;20058;-78
2023/03/25 01:03:27;;;;;;;2.97;0.90;;;;;;;10.32;75.46;98867.53;10551863;28;20059;-78
2023/03/25 01:08:30;;;;;;;5.22;1.00;;;;;;;10.32;75.70;98864.91;10535135;28;20128;-79
2023/03/25 01:13:33;;;;;;;5.18;1.20;;;;;;;10.31;75.48;98858.78;10538633;28;20043;-77
2023/03/25 01:18:36;;;;;;;3.58;1.33;;;;;;;10.32;75.01;98851.75;10550925;28;20066;-79
2023/03/25 01:23:38;;;;;;;2.70;1.10;;;;;;;10.28;75.43;98840.56;10554141;28;20052;-78
2023/03/25 01:28:41;;;;;;;4.95;1.40;;;;;;;10.25;75.33;98840.69;10549832;28;20508;-78
2023/03/25 01:33:43;;;;;;;4.15;1.17;;;;;;;10.29;75.27;98839.63;10536483;28;20123;-79
2023/03/25 01:38:46;;;;;;;3.15;1.25;;;;;;;10.18;76.26;98836.66;10532488;28;20052;-78
2023/03/25 01:44:03;;;;;;;1.80;0.85;;;;;;;10.25;76.26;98818.84;10532486;28;20047;-79
2023/03/25 01:49:08;;;;;;;2.13;0.85;;;;;;;10.32;75.58;98815.00;10533060;28;20054;-78
2023/03/25 01:54:16;;;;;;;3.95;1.27;;;;;;;10.29;75.92;98796.75;10542906;28;20040;-78
2023/03/25 01:59:23;;;;;;;2.95;1.10;;;;;;;10.23;77.04;98789.16;10562840;28;20047;-79
2023/03/25 02:04:44;;;;;;;3.70;1.27;;;;;;;10.17;77.48;98786.81;10558036;28;20040;-79
2023/03/25 02:09:46;;;;;;;3.10;1.35;;;;;;;10.37;76.10;98802.47;10533321;28;20097;-79
2023/03/25 02:14:47;;;;;;;6.88;1.30;;;;;;;10.38;76.08;98792.81;10559426;28;20109;-79
2023/03/25 02:20:09;;;;;;;2.35;1.20;;;;;;;10.37;75.81;98791.13;10553860;28;20533;-77
2023/03/25 02:25:20;;;;;;;1.80;1.02;;;;;;;10.44;74.84;98788.06;10541602;28;20060;-78
2023/03/25 02:30:47;;;;;;;4.05;1.27;;;;;;;10.38;75.23;98782.31;10563306;28;20044;-78
2023/03/25 02:36:09;;;;;;;;;;;;;;;10.41;74.50;98783.00;10549567;28;20040;-77
2023/03/25 02:41:29;;;;;;;2.47;1.23;;;;;;;10.35;74.83;98770.16;10506771;28;19920;-79
2023/03/25 02:46:35;;;;;;;2.25;1.10;;;;;;;10.37;75.08;98764.84;10514027;28;20056;-78
2023/03/25 02:51:45;;;;;;;3.92;1.13;;;;;;;10.15;77.51;98767.69;10553437;28;20086;-78
2023/03/25 02:56:49;;;;;;;2.33;1.00;;;;;;;10.13;77.30;98764.25;10522007;28;20070;-78
2023/03/25 03:01:57;;;;;;;6.15;1.38;;;;;;;10.10;77.43;98762.66;10562305;28;20051;-79
2023/03/25 03:06:59;;;;;;;3.80;1.08;;;;;;;10.02;77.94;98759.56;10551207;28;20066;-79
2023/03/25 03:12:26;;;;;;;3.63;1.20;;;;;;;10.22;76.29;98776.94;10544002;28;20048;-79
2023/03/25 03:17:48;;;;;;;4.10;1.05;;;;;;;9.92;78.30;98766.19;10523550;28;20055;-79
2023/03/25 03:23:24;;;;;;;3.03;1.08;;;;;;;10.13;76.95;98773.00;10559128;28;20127;-78
2023/03/25 03:28:32;;;;;;;7.80;1.75;;;;;;;10.09;76.95;98772.31;10520052;28;20083;-80
2023/03/25 03:33:49;;;;;;;4.63;1.58;;;;;;;10.06;77.07;98775.09;10536961;28;20044;-78
2023/03/25 03:39:14;;;;;;;2.80;0.98;;;;;;;10.17;75.41;98774.53;10543355;28;20048;-80
2023/03/25 03:44:21;;;;;;;3.78;1.05;;;;;;;10.09;76.44;98767.06;10566168;28;20044;-79
2023/03/25 03:49:37;;;;;;;3.15;1.08;;;;;;;10.07;75.28;98779.41;10544585;28;20059;-79
2023/03/25 03:54:51;;;;;;;2.70;0.90;;;;;;;10.10;74.66;98775.78;10546329;28;20048;-79
2023/03/25 04:00:14;;;;;;;2.60;0.80;;;;;;;10.03;75.02;98783.09;10562075;28;20100;-79
2023/03/25 04:05:20;;;;;;;1.45;0.60;;;;;;;10.03;74.36;98788.34;10551708;28;20075;-79
2023/03/25 04:10:33;;;;;;;2.83;0.65;;;;;;;10.05;73.87;98791.78;10552108;28;20043;-77
2023/03/25 04:15:36;;;;;;;1.70;0.60;;;;;;;10.11;73.27;98785.34;10551074;28;20051;-78
2023/03/25 04:20:43;;;;;;;1.15;0.40;;;;;;;10.14;72.98;98786.97;10549861;28;20040;-78
2023/03/25 04:25:51;;;;;;;2.42;0.60;;;;;;;10.07;73.36;98782.03;10548319;28;20040;-78
2023/03/25 04:30:55;;;;;;;0.90;0.70;;;;;;;10.23;73.42;98795.25;10550419;28;20118;-78
2023/03/25 04:36:00;;;;;;;0.63;0.30;;;;;;;10.00;73.71;98795.53;10530714;28;20527;-78
2023/03/25 04:41:05;;;;;;;1.55;0.82;;;;;;;10.10;73.81;98794.16;10547269;28;20066;-78
2023/03/25 04:46:11;;;;;;;4.60;0.80;;;;;;;10.17;73.03;98795.53;10532723;28;20439;-78
2023/03/25 04:51:14;;;;;;;0.97;0.30;;;;;;;9.99;74.75;98792.06;10535169;28;20147;-78
2023/03/25 04:56:17;;;;;;;1.50;0.65;;;;;;;10.07;73.46;98794.31;10556331;28;20044;-78
2023/03/25 05:01:23;;;;;;;2.60;0.40;;;;;;;10.05;73.28;98799.66;10557609;28;20075;-78
2023/03/25 05:06:25;;;;;;;0.95;0.40;;;;;;;10.11;71.95;98794.06;10534983;28;20040;-78
2023/03/25 05:11:27;;;;;;;1.85;0.32;;;;;;;10.08;71.97;98804.72;10551153;28;20093;-78
2023/03/25 05:16:29;;;;;;;0.68;0.38;;;;;;;10.07;71.07;98808.28;10529725;28;20074;-78
2023/03/25 05:21:36;;;;;;;3.22;0.50;;;;;;;10.08;70.99;98807.34;10549246;28;20051;-77
2023/03/25 05:26:40;;;;;;;1.45;0.20;;;;;;;10.10;70.58;98817.78;10529129;28;20559;-78
2023/03/25 05:31:44;;;;;;;0.25;0.15;;;;;;;10.09;70.96;98814.31;10530308;28;20097;-77
2023/03/25 05:36:46;;;;;;;1.30;0.30;;;;;;;10.08;69.55;98809.13;10546155;28;20040;-77
2023/03/25 05:41:49;;;;;;;0.70;0.25;;;;;;;10.01;68.14;98805.97;10529600;28;20130;-78
2023/03/25 05:46:50;;;;;;;0.70;0.20;;;;;;;9.87;68.38;98818.88;10529020;28;20044;-77
2023/03/25 05:51:54;;;;;;;1.20;0.20;;;;;;;9.91;66.49;98823.06;10525824;28;20409;-77
2023/03/25 05:56:56;;;;;;;0.30;0.10;;;;;;;9.89;64.06;98816.22;10545858;28;20039;-78
2023/03/25 06:01:58;;;;;;;0.20;0.10;;;;;;;9.86;64.31;98827.69;10548832;28;20039;-77
2023/03/25 06:07:00;;;;;;;4.50;0.45;;;;;;;9.89;64.90;98839.84;10525845;28;20101;-77
2023/03/25 06:12:02;;;;;;;1.60;0.28;;;;;;;9.78;65.39;98846.47;10508884;28;20044;-78
2023/03/25 06:17:04;;;;;;;1.10;0.30;;;;;;;9.66;67.13;98856.69;10543961;28;20040;-78
2023/03/25 06:22:08;;;;;;;0.40;0.22;;;;;;;9.48;68.63;98861.84;10550929;28;20039;-78
2023/03/25 06:27:16;;;;;;;0.68;0.22;;;;;;;9.32;70.32;98869.56;10527249;28;20073;-77
2023/03/25 06:32:20;;;;;;;0.98;0.40;;;;;;;9.46;70.87;98882.03;10527284;28;20039;-78
2023/03/25 06:37:24;;;;;;;1.50;0.40;;;;;;;9.98;68.53;98878.78;10564722;28;20035;-78
2023/03/25 06:42:27;;;;;;;1.15;0.40;;;;;;;10.07;68.03;98866.03;10470733;28;20044;-79
2023/03/25 06:48:02;;;;;;;0.75;0.38;;;;;;;10.21;67.22;98860.13;10546850;28;20072;-76
2023/03/25 06:53:04;;;;;;;1.90;0.57;;;;;;;10.36;65.30;98871.69;10509989;28;20066;-77
2023/03/25 06:58:05;;;;;;;1.23;0.50;;;;;;;10.39;65.25;98884.66;10528563;28;20048;-77
2023/03/25 07:03:08;;;;;;;0.90;0.40;;;;;;;10.40;65.28;98880.25;10564361;28;20071;-77
2023/03/25 07:08:10;;;;;;;2.03;0.52;;;;;;;10.24;64.76;98888.91;10599678;28;20122;-78
2023/03/25 07:13:12;;;;;;;2.45;0.60;;;;;;;10.06;64.99;98881.88;10580081;28;20047;-78
2023/03/25 07:18:14;;;;;;;1.13;0.50;;;;;;;10.11;64.40;98882.50;10597031;28;20039;-77
2023/03/25 07:23:16;;;;;;;1.65;0.40;;;;;;;10.18;65.60;98878.69;10593166;28;20459;-77
2023/03/25 07:28:18;;;;;;;3.85;0.70;;;;;;;10.46;63.88;98878.19;10594861;28;20062;-76
2023/03/25 07:33:21;;;;;;;3.17;0.60;;;;;;;10.67;61.90;98876.28;10580091;28;20134;-77
2023/03/25 07:38:23;;;;;;;1.58;0.50;;;;;;;10.61;60.61;98884.44;10578604;28;20051;-77
2023/03/25 07:43:25;;;;;;;3.05;0.70;;;;;;;10.47;61.79;98887.75;10581894;28;20058;-78
2023/03/25 07:48:36;;;;;;;2.08;1.00;;;;;;;10.34;63.05;98882.25;10581893;28;20040;-78
2023/03/25 07:53:41;;;;;;;2.25;0.50;;;;;;;10.09;64.89;98895.72;10580396;28;20078;-77
2023/03/25 07:58:44;;;;;;;1.92;0.57;;;;;;;10.01;67.08;98897.84;10600054;28;20078;-76
2023/03/25 08:03:46;;;;;;;0.98;0.40;;;;;;;10.01;69.76;98904.88;10577097;28;20516;-78
2023/03/25 08:08:48;;;;;;;1.35;0.52;;;;;;;10.14;73.60;98921.75;10574883;28;20043;-76
2023/03/25 08:13:50;;;;;;;0.57;0.30;;;;;;;10.05;75.98;98915.16;10604662;28;20041;-76
2023/03/25 08:18:53;;;;;;;4.47;2.60;;;;;;;9.91;77.13;98916.72;10600246;28;20104;-77
2023/03/25 08:24:03;;;;;;;2.92;1.58;;;;;;;9.93;79.10;98910.50;10581091;28;20516;-76
2023/03/25 08:29:06;;;;;;;1.50;0.52;;;;;;;9.95;79.93;98919.13;10565334;28;20489;-76
2023/03/25 08:34:12;;;;;;;2.25;0.82;;;;;;;9.80;81.92;98933.81;10564931;28;20126;-76
2023/03/25 08:39:16;;;;;;;2.58;1.25;;;;;;;9.77;83.80;98939.22;10590058;28;20042;-76
2023/03/25 08:44:18;;;;;;;2.25;0.50;;;;;;;9.52;84.82;98949.97;10539653;28;20554;-75
2023/03/25 08:49:19;;;;;;;1.10;0.43;;;;;;;9.12;89.03;98964.00;10546728;28;20101;-75
2023/03/25 08:54:22;;;;;;;0.55;0.30;;;;;;;8.88;89.46;98968.47;10547100;28;20036;-74
2023/03/25 08:59:24;;;;;;;1.15;0.68;;;;;;;8.79;92.89;98972.34;10560954;28;20044;-76
2023/03/25 09:04:25;;;;;;;1.02;0.40;;;;;;;8.80;93.97;98973.19;10589216;28;20093;-75
2023/03/25 09:09:28;;;;;;;0.73;0.40;;;;;;;8.74;94.90;98976.06;10514801;28;20123;-75
2023/03/25 09:14:30;;;;;;;1.55;0.40;;;;;;;8.46;94.37;98985.06;10513876;28;20051;-75
2023/03/25 09:19:36;;;;;;;0.90;0.47;;;;;;;8.50;93.08;98994.50;10546057;28;20089;-76
2023/03/25 09:24:39;;;;;;;1.13;0.30;;;;;;;8.32;92.33;99000.41;10523808;28;20063;-74
2023/03/25 09:29:41;;;;;;;1.23;0.47;;;;;;;8.19;95.47;98991.31;10486830;28;20048;-75
2023/03/25 09:34:43;;;;;;;1.13;0.50;;;;;;;8.21;95.14;98977.28;10504563;28;20064;-75
2023/03/25 09:39:45;;;;;;;1.08;0.60;;;;;;;8.27;97.88;98968.31;10511585;28;20039;-76
2023/03/25 09:44:54;;;;;;;1.45;0.50;;;;;;;8.51;96.56;98975.25;10546469;28;20040;-77
2023/03/25 09:49:59;;;;;;;2.75;1.63;;;;;;;8.55;100.00;98974.22;10544827;28;20046;-76
2023/03/25 09:55:17;;;;;;;2.05;1.20;;;;;;;8.66;100.00;98971.13;10529564;27;20405;-76
2023/03/25 10:00:22;;;;;;;1.90;0.73;;;;;;;9.43;91.81;98955.63;10504579;28;20044;-75
2023/03/25 10:05:33;;;;;;;1.63;1.20;;;;;;;10.31;92.14;98955.09;10535463;28;20041;-76
2023/03/25 10:11:00;;;;;;;2.15;1.58;;;;;;;11.09;91.44;98949.47;10547866;22;20090;-73
2023/03/25 10:16:10;;;;;;;;;;;;;;;11.75;79.72;98942.53;10544187;28;20040;-73
2023/03/25 10:21:20;;;;;;;1.20;0.68;;;;;;;11.91;77.72;98939.94;10557045;28;20010;-72
2023/03/25 10:26:31;;;;;;;1.40;0.85;;;;;;;11.98;78.85;98939.53;10575809;28;20047;-73
2023/03/25 10:31:38;;;;;;;0.88;0.50;;;;;;;12.01;74.50;98927.97;10534220;28;20048;-73
2023/03/25 10:36:50;;;;;;;1.20;0.60;;;;;;;11.93;73.08;98923.13;10535170;28;20459;-73
2023/03/25 10:42:30;;;;;;;2.03;1.20;;;;;;;11.62;70.03;98914.22;10533414;28;20603;-74
2023/03/25 10:47:37;;;;;;;1.50;0.73;;;;;;;11.41;66.33;98914.53;10563664;28;20043;-73
2023/03/25 10:52:40;;;;;;;1.38;0.50;;;;;;;11.78;64.32;98906.38;10531538;28;20044;-74
2023/03/25 10:57:43;;;;;;;1.13;0.30;;;;;;;12.03;63.19;98905.03;10532809;28;20051;-74
2023/03/25 11:02:49;;;;;;;0.60;0.20;;;;;;;11.93;61.69;98896.78;10538310;28;20049;-73
2023/03/25 11:07:57;;;;;;;0.60;0.30;;;;;;;12.72;60.01;98895.81;10536896;28;20074;-75
2023/03/25 11:13:05;;;;;;;1.10;0.30;;;;;;;12.66;59.02;98897.03;10544847;28;20047;-75
2023/03/25 11:18:11;;;;;;;1.38;0.40;;;;;;;12.63;60.55;98894.56;10519489;28;20037;-75
2023/03/25 11:23:30;;;;;;;1.17;0.68;;;;;;;13.06;58.65;98886.78;10540726;28;20051;-75
2023/03/25 11:28:37;;;;;;;2.33;0.40;;;;;;;12.37;59.72;98909.25;10546702;28;20105;-75
2023/03/25 11:33:42;;;;;;;0.75;0.32;;;;;;;11.20;72.97;98929.63;10546696;28;20048;-74
2023/03/25 11:38:49;;;;;;;1.23;0.40;;;;;;;10.41;84.28;98934.53;10545252;28;20592;-73
2023/03/25 11:43:51;;;;;;;1.45;0.50;;;;;;;9.99;85.49;98899.69;10544409;28;20491;-73
2023/03/25 11:48:53;;;;;;;0.75;0.45;;;;;;;10.57;77.89;98885.53;10543125;28;20063;-72
2023/03/25 11:54:11;;;;;;;0.77;0.28;;;;;;;11.60;75.46;98865.25;10543322;28;20114;-73
2023/03/25 11:59:22;;;;;;;0.20;0.17;;;;;;;12.31;69.47;98857.75;10541980;28;20515;-73
2023/03/25 12:04:23;;;;;;;0.47;0.30;;;;;;;12.25;61.86;98849.34;10543190;28;20090;-74
2023/03/25 12:09:30;;;;;;;0.50;0.40;;;;;;;12.83;64.79;98844.13;10544548;28;20047;-73
2023/03/25 12:15:01;;;;;;;0.20;0.20;;;;;;;12.83;61.96;98838.84;10542723;28;20040;-73
2023/03/25 12:20:15;;;;;;;0.47;0.20;;;;;;;13.08;56.03;98837.38;10532620;28;20056;-74
2023/03/25 12:25:57;;;;;;;1.13;0.20;;;;;;;12.94;57.09;98826.84;10542661;28;20126;-74
2023/03/25 12:31:24;;;;;;;0.77;0.40;;;;;;;12.85;57.98;98820.31;10521481;28;20056;-74
2023/03/25 12:36:28;;;;;;;;;;;;;;;12.82;55.45;98813.44;10498884;28;20114;-74
2023/03/25 12:41:42;;;;;;;0.90;0.40;;;;;;;12.86;56.73;98808.81;10499392;28;19920;-74
2023/03/25 12:46:55;;;;;;;1.42;0.75;;;;;;;12.07;56.35;98838.06;10500421;28;20398;-74
2023/03/25 12:52:34;;;;;;;0.35;0.20;;;;;;;10.56;69.94;98836.53;10499902;28;20040;-73
2023/03/25 12:57:36;;;;;;;0.82;0.30;;;;;;;10.56;71.80;98808.47;10501223;28;20387;-74
2023/03/25 13:02:59;;;;;;;2.28;0.60;;;;;;;11.07;71.78;98814.59;10499137;28;20049;-74
2023/03/25 13:08:23;;;;;;;1.20;0.20;;;;;;;11.19;65.92;98813.06;10498393;28;20119;-75
2023/03/25 13:13:27;;;;;;;0.73;0.60;;;;;;;11.30;65.06;98820.41;10498023;28;20047;-74
2023/03/25 13:19:00;;;;;;;0.43;0.20;;;;;;;11.57;63.01;98800.47;10499338;28;20044;-75
2023/03/25 13:24:30;;;;;;;0.65;0.35;;;;;;;11.70;60.13;98781.34;10497798;28;20043;-75
2023/03/25 13:29:42;;;;;;;0.65;0.40;;;;;;;11.98;59.49;98773.59;10499060;28;20496;-75
2023/03/25 13:35:04;;;;;;;0.70;0.30;;;;;;;12.12;58.33;98778.06;10521934;28;20474;-74
2023/03/25 13:40:21;;;;;;;1.23;0.38;;;;;;;12.33;59.38;98771.56;10498019;28;20053;-74
2023/03/25 13:45:26;;;;;;;1.27;0.40;;;;;;;12.23;56.84;98762.50;10499258;28;20467;-74
2023/03/25 13:50:30;;;;;;;1.70;0.60;;;;;;;12.51;55.55;98768.75;10498626;28;20040;-74
2023/03/25 13:55:38;;;;;;;1.38;0.43;;;;;;;12.81;56.62;98760.78;10497405;28;20044;-74
2023/03/25 14:01:19;;;;;;;1.98;0.43;;;;;;;13.05;54.53;98756.63;10498228;28;20040;-74
2023/03/25 14:06:28;;;;;;;1.67;0.93;;;;;;;13.02;54.71;98763.91;10522253;28;20050;-74
2023/03/25 14:11:36;;;;;;;1.25;0.60;;;;;;;12.99;52.06;98769.38;10539408;28;20037;-74
2023/03/25 14:16:44;;;;;;;1.27;0.70;;;;;;;12.94;53.48;98753.81;10536208;28;20122;-73
2023/03/25 14:21:50;;;;;;;2.10;0.47;;;;;;;13.05;52.17;98748.72;10516522;28;20123;-74
2023/03/25 14:26:58;;;;;;;1.88;0.60;;;;;;;13.04;50.89;98754.94;10522558;28;20401;-73
2023/03/25 14:32:02;;;;;;;2.30;0.65;;;;;;;12.82;50.42;98759.84;10501070;28;20086;-74
2023/03/25 14:37:06;;;;;;;2.20;0.70;;;;;;;12.69;51.37;98798.44;10532908;28;20036;-73
2023/03/25 14:42:10;;;;;;;1.83;0.28;;;;;;;9.17;70.44;98885.13;10545189;28;20051;-73
2023/03/25 14:47:21;;;;;;;1.85;0.30;;;;;;;7.79;90.32;98885.56;10545815;28;20056;-72
2023/03/25 14:52:36;;;;;;;0.77;0.22;;;;;;;7.52;95.59;98861.31;10546285;28;20044;-71
2023/03/25 14:57:41;;;;;;;0.70;0.17;;;;;;;7.68;94.43;98853.75;10547213;28;20044;-72
2023/03/25 15:02:49;;;;;;;1.60;0.30;;;;;;;7.75;91.56;98844.78;10546240;28;20101;-71
2023/03/25 15:08:33;;;;;;;4.38;0.30;;;;;;;7.70;88.92;98823.16;10546041;28;20075;-71
2023/03/25 15:13:45;;;;;;;0.50;0.30;;;;;;;7.84;91.54;98790.31;10531070;28;20113;-72
2023/03/25 15:18:48;;;;;;;0.80;0.40;;;;;;;8.10;88.14;98798.84;10546679;28;20434;-72
2023/03/25 15:23:59;;;;;;;0.70;0.40;;;;;;;8.52;83.21;98811.94;10544192;28;20408;-72
2023/03/25 15:29:20;;;;;;;0.90;0.35;;;;;;;8.95;78.57;98819.72;10545067;28;20505;-72
2023/03/25 15:34:53;;;;;;;0.73;0.30;;;;;;;9.51;72.72;98816.25;10545721;28;20127;-72
2023/03/25 15:40:11;;;;;;;1.15;0.30;;;;;;;9.62;71.79;98813.13;10544458;28;20047;-72
2023/03/25 15:45:34;;;;;;;1.27;0.47;;;;;;;9.71;67.97;98816.16;10545013;28;20036;-72
2023/03/25 15:50:58;;;;;;;1.52;0.55;;;;;;;9.80;67.79;98809.63;10544864;28;20119;-71
2023/03/25 15:56:08;;;;;;;2.47;0.50;;;;;;;9.82;66.02;98816.50;10546635;28;20431;-73
2023/03/25 16:01:20;;;;;;;0.98;0.57;;;;;;;9.73;66.07;98819.56;10544399;28;20105;-73
2023/03/25 16:06:24;;;;;;;1.20;0.70;;;;;;;9.54;67.57;98830.06;10543647;28;20412;-73
2023/03/25 16:11:27;;;;;;;3.33;0.50;;;;;;;9.54;66.22;98843.19;10484889;22;20041;-72
2023/03/25 16:16:34;;;;;;;2.58;0.47;;;;;;;9.60;65.86;98845.53;10462441;28;20060;-72
2023/03/25 16:21:37;;;;;;;1.42;0.60;;;;;;;9.73;65.15;98842.31;10445403;28;20041;-73
2023/03/25 16:26:45;;;;;;;1.52;0.50;;;;;;;9.70;66.23;98839.88;10462488;28;20603;-73
2023/03/25 16:32:04;;;;;;;0.70;0.40;;;;;;;9.72;65.34;98843.25;10445269;28;20037;-73
2023/03/25 16:37:06;;;;;;;2.63;0.45;;;;;;;9.62;67.32;98837.59;10461162;28;20486;-73
2023/03/25 16:42:25;;;;;;;2.20;0.50;;;;;;;9.52;67.49;98833.72;10461148;28;20044;-72
2023/03/25 16:47:31;;;;;;;1.50;0.50;;;;;;;9.53;67.40;98831.00;10460855;28;20487;-73
2023/03/25 16:52:33;;;;;;;1.43;0.50;;;;;;;9.44;65.18;98828.81;10460623;28;20565;-72
2023/03/25 16:57:38;;;;;;;1.40;0.60;;;;;;;9.53;65.68;98844.13;10443674;28;20516;-73
2023/03/25 17:02:40;;;;;;;0.85;0.40;;;;;;;9.43;66.70;98831.47;10460514;28;20429;-73
2023/03/25 17:07:42;;;;;;;1.08;0.50;;;;;;;9.29;66.56;98834.75;10460552;28;20126;-73
2023/03/25 17:12:54;;;;;;;3.10;0.95;;;;;;;9.20;67.21;98832.53;10460415;28;20048;-72
2023/03/25 17:18:02;;;;;;;0.65;0.50;;;;;;;9.09;67.43;98833.03;10441958;28;20049;-74
2023/03/25 17:23:07;;;;;;;1.38;0.70;;;;;;;9.06;67.24;98831.41;10441168;28;20071;-72
2023/03/25 17:28:40;;;;;;;2.92;0.70;;;;;;;9.07;66.97;98837.47;10441323;28;20087;-73
2023/03/25 17:33:52;;;;;;;0.77;0.60;;;;;;;9.06;67.57;98846.28;10458493;28;20383;-73
2023/03/25 17:38:56;;;;;;;2.25;1.08;;;;;;;9.03;68.16;98847.28;10459394;28;20094;-73
2023/03/25 17:43:59;;;;;;;1.90;1.10;;;;;;;8.94;69.15;98846.81;10459047;28;20128;-72
2023/03/25 17:49:12;;;;;;;1.98;1.00;;;;;;;8.89;69.92;98854.03;10458782;28;20121;-73
2023/03/25 17:54:14;;;;;;;3.28;0.90;;;;;;;8.69;71.58;98849.66;10441028;28;20049;-73
2023/03/25 17:59:19;;;;;;;1.95;0.80;;;;;;;8.63;71.18;98850.75;10441089;28;20057;-73
2023/03/25 18:04:21;;;;;;;3.25;1.75;;;;;;;8.55;71.97;98839.78;10440886;28;20041;-72
2023/03/25 18:09:24;;;;;;;2.47;1.20;;;;;;;8.65;71.06;98845.47;10440845;28;20125;-72
2023/03/25 18:14:25;;;;;;;2.35;1.50;;;;;;;8.59;70.95;98852.69;10444437;28;20041;-72
2023/03/25 18:19:30;;;;;;;2.60;1.00;;;;;;;8.78;70.32;98865.00;10448721;28;20049;-73
2023/03/25 18:24:32;;;;;;;1.45;0.75;;;;;;;8.86;69.40;98865.50;10467844;28;20052;-72
2023/03/25 18:29:37;;;;;;;1.00;0.82;;;;;;;8.82;70.24;98872.66;10468836;28;20536;-72
2023/03/25 18:34:38;;;;;;;2.30;0.85;;;;;;;8.92;69.13;98882.72;10467473;28;20041;-72
2023/03/25 18:39:40;;;;;;;2.03;0.82;;;;;;;9.01;69.63;98887.56;10449132;28;20068;-72
2023/03/25 18:44:42;;;;;;;2.40;0.70;;;;;;;9.01;69.58;98900.69;10465783;28;20045;-72
2023/03/25 18:49:44;;;;;;;2.17;0.75;;;;;;;9.00;70.49;98889.34;10465964;28;20056;-73
2023/03/25 18:54:46;;;;;;;2.53;0.70;;;;;;;9.30;68.83;98881.91;10464757;28;20041;-72
2023/03/25 18:59:47;;;;;;;1.95;0.88;;;;;;;9.14;70.85;98890.50;10447621;28;20148;-71
2023/03/25 19:04:49;;;;;;;4.78;0.93;;;;;;;9.29;70.00;98892.44;10464318;28;20041;-72
2023/03/25 19:10:02;;;;;;;2.88;0.98;;;;;;;9.13;72.22;98881.78;10464422;28;20079;-71
2023/03/25 19:15:04;;;;;;;1.88;0.80;;;;;;;9.13;72.23;98884.41;10446465;28;20045;-72
2023/03/25 19:20:07;;;;;;;2.70;0.88;;;;;;;9.13;71.91;98880.94;10448667;28;20447;-73
2023/03/25 19:25:10;;;;;;;2.83;0.73;;;;;;;9.27;71.70;98876.78;10467161;28;20053;-72
2023/03/25 19:30:18;;;;;;;1.48;0.77;;;;;;;9.18;71.59;98871.09;10464671;28;20116;-72
2023/03/25 19:35:22;;;;;;;1.63;1.00;;;;;;;9.09;72.26;98886.31;10429825;28;20041;-73
2023/03/25 19:40:26;;;;;;;2.67;0.68;;;;;;;9.19;71.42;98892.00;10464591;28;20045;-72
2023/03/25 19:45:30;;;;;;;1.88;0.65;;;;;;;9.27;69.54;98895.13;10429526;28;20454;-72
2023/03/25 19:50:33;;;;;;;2.38;1.40;;;;;;;9.45;69.55;98934.59;10446298;28;20052;-73
2023/03/25 19:55:35;;;;;;;1.27;0.90;;;;;;;9.00;76.14;98906.84;10445580;28;20494;-72
2023/03/25 20:00:37;;;;;;;5.88;1.20;;;;;;;8.82;76.46;98898.00;10462827;28;20414;-73
2023/03/25 20:05:39;;;;;;;1.73;0.88;;;;;;;8.51;79.13;98860.00;10445837;28;20041;-73
2023/03/25 20:10:41;;;;;;;3.65;2.50;;;;;;;8.66;73.92;98855.03;10445083;28;20055;-73
2023/03/25 20:15:43;;;;;;;4.97;4.50;;;;;;;8.89;72.47;98873.22;10444990;28;20410;-72
2023/03/25 20:20:45;;;;;;;1.35;0.50;;;;;;;8.80;76.04;98876.25;10445428;28;20045;-73
2023/03/25 20:25:49;;;;;;;2.92;2.25;;;;;;;8.53;80.22;98875.66;10462016;28;20115;-71
2023/03/25 20:30:52;;;;;;;2.15;0.70;;;;;;;8.42;80.91;98881.34;10443872;28;20049;-72
2023/03/25 20:35:53;;;;;;;1.58;0.88;;;;;;;8.35;80.21;98880.69;10443168;28;20090;-72
2023/03/25 20:40:56;;;;;;;2.13;1.50;;;;;;;8.22;80.59;98886.50;10443940;28;20045;-71
2023/03/25 20:45:58;;;;;;;1.20;0.73;;;;;;;8.28;79.41;98858.31;10428556;28;20045;-73
2023/03/25 20:51:02;;;;;;;1.92;0.40;;;;;;;8.15;80.41;98845.78;10443139;28;20120;-72
2023/03/25 20:56:04;;;;;;;2.83;1.95;;;;;;;8.19;81.74;98842.09;10443417;28;20048;-71
2023/03/25 21:01:06;;;;;;;35.35;26.15;;;;;;;8.07;83.22;98848.72;10443365;28;20499;-73
2023/03/25 21:06:09;;;;;;;2.38;1.30;;;;;;;8.06;83.85;98850.47;10444115;28;20490;-73
2023/03/25 21:11:25;;;;;;;2.10;0.90;;;;;;;8.03;83.81;98847.97;10445350;28;20048;-72
2023/03/25 21:16:27;;;;;;;6.60;4.82;;;;;;;8.10;83.27;98843.34;10462029;28;20059;-73
2023/03/25 21:21:30;;;;;;;6.30;2.60;;;;;;;8.19;82.94;98849.97;10460346;28;20075;-73
2023/03/25 21:26:33;;;;;;;2.03;1.00;;;;;;;8.23;82.31;98851.53;10442268;28;20435;-73
2023/03/25 21:31:35;;;;;;;4.15;1.15;;;;;;;8.18;83.11;98853.50;10459612;28;20100;-72
2023/03/25 21:36:39;;;;;;;6.28;3.78;;;;;;;8.13;82.60;98852.84;10442521;28;20068;-72
2023/03/25 21:41:41;;;;;;;3.90;2.20;;;;;;;8.28;81.65;98855.69;10459635;28;20120;-73
2023/03/25 21:46:43;;;;;;;1.83;1.02;;;;;;;8.37;81.26;98846.66;10460207;28;20033;-73
2023/03/25 21:51:49;;;;;;;2.95;1.00;;;;;;;8.66;78.15;98855.03;10460432;28;20045;-72
2023/03/25 21:56:53;;;;;;;3.35;1.00;;;;;;;8.69;77.34;98852.28;10442083;28;20052;-73
2023/03/25 22:01:57;;;;;;;3.87;0.90;;;;;;;8.94;73.46;98850.31;10442654;28;20482;-73
2023/03/25 22:06:59;;;;;;;2.55;0.85;;;;;;;8.97;73.08;98859.78;10442172;28;20499;-72
2023/03/25 22:12:00;;;;;;;4.35;0.93;;;;;;;8.89;73.93;98865.34;10486767;22;20509;-75
2023/03/25 22:17:02;;;;;;;2.90;1.00;;;;;;;8.74;75.37;98850.31;10514719;28;20060;-75
2023/03/25 22:22:09;;;;;;;2.95;1.20;;;;;;;8.80;74.55;98863.97;10498082;28;20075;-74
2023/03/25 22:27:11;;;;;;;2.38;0.80;;;;;;;8.62;75.29;98859.53;10499204;28;20047;-74
2023/03/25 22:32:13;;;;;;;5.15;1.70;;;;;;;8.75;75.11;98857.25;10498579;28;20051;-75
2023/03/25 22:37:15;;;;;;;4.30;1.77;;;;;;;8.64;76.12;98844.63;10499269;28;20040;-75
2023/03/25 22:42:17;;;;;;;1.50;0.70;;;;;;;8.68;74.62;98846.19;10499669;28;20044;-74
2023/03/25 22:47:19;;;;;;;2.88;0.80;;;;;;;8.69;74.85;98852.28;10516532;28;20498;-74
2023/03/25 22:52:21;;;;;;;4.40;1.00;;;;;;;8.66;74.56;98866.34;10497867;28;20079;-74
2023/03/25 22:57:22;;;;;;;1.88;0.82;;;;;;;8.67;74.55;98852.31;10516549;28;20123;-75
2023/03/25 23:02:24;;;;;;;2.72;0.70;;;;;;;8.68;74.91;98853.22;10504714;28;20044;-75
2023/03/25 23:07:26;;;;;;;2.95;0.75;;;;;;;8.66;76.55;98860.25;10505201;28;20049;-74
2023/03/25 23:12:28;;;;;;;1.50;0.68;;;;;;;8.44;81.19;98855.94;10490115;28;20045;-75
2023/03/25 23:17:30;;;;;;;2.42;0.60;;;;;;;8.41;82.12;98852.59;10504662;28;20036;-74
2023/03/25 23:22:35;;;;;;;3.60;0.70;;;;;;;8.40;81.99;98861.34;10506015;28;20383;-74
2023/03/25 23:27:38;;;;;;;2.20;0.70;;;;;;;8.26;84.61;98864.50;10502335;28;20044;-74
2023/03/25 23:32:40;;;;;;;3.28;0.68;;;;;;;8.16;87.62;98847.50;10502314;28;20036;-73
2023/03/25 23:37:44;;;;;;;5.90;0.85;;;;;;;8.16;88.69;98860.59;10503638;28;20040;-73
2023/03/25 23:42:46;;;;;;;3.83;1.15;;;;;;;8.03;90.65;98863.69;10505937;28;20047;-74
2023/03/25 23:47:48;;;;;;;3.90;1.13;;;;;;;8.05;87.47;98866.22;10503064;28;20094;-74
2023/03/25 23:52:50;;;;;;;2.35;0.90;;;;;;;8.09;85.57;98866.03;10502453;28;20466;-74
2023/03/25 23:57:54;;;;;;;2.78;0.90;;;;;;;8.05;84.13;98867.06;10502500;28;20502;-74
